Time,TemperatureF,DewpointF,PressureIn,WindDirection,WindDirectionDegrees,WindSpeedMPH,WindSpeedGustMPH,Humidity,HourlyPrecipIn,Conditions,Clouds,dailyrainin,SoftwareType,DateUTC
2013-04-16 00:02:00,71.0,67.0,30.03,North,11,0.0,4.0,86,0.00,,,0.13,,2013-04-16 10:02:00,
2013-04-16 00:12:00,71.0,67.0,30.03,North,11,0.0,4.0,86,0.00,,,0.13,,2013-04-16 10:12:00,
2013-04-16 00:22:00,71.0,67.0,30.04,North,11,0.0,4.0,86,0.00,,,0.13,,2013-04-16 10:22:00,
2013-04-16 00:32:00,71.0,67.0,30.05,North,11,0.0,4.0,87,0.00,,,0.13,,2013-04-16 10:32:00,
2013-04-16 00:42:00,71.0,67.0,30.05,North,11,0.0,4.0,87,0.00,,,0.13,,2013-04-16 10:42:00,
2013-04-16 00:52:00,71.0,67.0,30.04,North,11,0.0,0.0,87,0.00,,,0.13,,2013-04-16 10:52:00,
2013-04-16 01:02:00,71.0,67.0,30.03,North,11,0.0,3.0,87,0.00,,,0.13,,2013-04-16 11:02:00,
2013-04-16 01:12:00,71.0,67.0,30.03,North,11,0.0,3.0,87,0.00,,,0.13,,2013-04-16 11:12:00,
2013-04-16 01:21:00,71.0,67.0,30.03,North,11,0.0,4.0,88,0.00,,,0.13,,2013-04-16 11:21:00,
2013-04-16 01:31:00,70.0,66.0,30.03,North,11,1.0,4.0,88,0.00,,,0.13,,2013-04-16 11:31:00,
2013-04-16 01:41:00,70.0,66.0,30.03,North,11,1.0,4.0,88,0.00,,,0.13,,2013-04-16 11:41:00,
2013-04-16 01:52:00,70.0,66.0,30.03,North,11,2.0,2.0,88,0.00,,,0.13,,2013-04-16 11:52:00,
2013-04-16 02:01:00,70.0,66.0,30.02,North,11,1.0,3.0,88,0.00,,,0.13,,2013-04-16 12:01:00,
2013-04-16 02:11:00,70.0,66.0,30.02,North,11,1.0,3.0,88,0.00,,,0.13,,2013-04-16 12:11:00,
2013-04-16 02:21:00,70.0,66.0,30.02,North,11,0.0,2.0,88,0.00,,,0.12,,2013-04-16 12:21:00,
2013-04-16 02:31:00,70.0,66.0,30.01,North,11,0.0,1.0,88,0.00,,,0.12,,2013-04-16 12:31:00,
2013-04-16 02:41:00,70.0,66.0,30.01,North,11,0.0,1.0,88,0.00,,,0.12,,2013-04-16 12:41:00,
2013-04-16 02:52:00,70.0,66.0,30.01,North,11,1.0,2.0,88,0.00,,,0.12,,2013-04-16 12:52:00,
2013-04-16 03:01:00,70.0,66.0,30.00,North,11,0.0,4.0,88,0.00,,,0.12,,2013-04-16 13:01:00,
2013-04-16 03:22:00,70.0,67.0,30.00,North,11,0.0,1.0,89,0.00,,,0.12,,2013-04-16 13:22:00,
2013-04-16 03:31:00,70.0,67.0,30.00,North,11,0.0,1.0,89,0.00,,,0.12,,2013-04-16 13:31:00,
2013-04-16 03:42:00,70.0,67.0,30.00,North,11,0.0,1.0,89,0.00,,,0.12,,2013-04-16 13:42:00,
2013-04-16 03:52:00,70.0,67.0,29.99,North,11,0.0,0.0,89,0.00,,,0.12,,2013-04-16 13:52:00,
2013-04-16 04:02:00,70.0,67.0,29.98,North,11,0.0,2.0,89,0.00,,,0.12,,2013-04-16 14:02:00,
2013-04-16 04:12:00,70.0,67.0,29.98,North,11,0.0,2.0,89,0.00,,,0.12,,2013-04-16 14:12:00,
2013-04-16 04:22:00,70.0,67.0,29.98,North,11,0.0,3.0,89,0.00,,,0.12,,2013-04-16 14:22:00,
2013-04-16 04:32:00,70.0,67.0,29.98,North,11,0.0,0.0,89,0.00,,,0.12,,2013-04-16 14:32:00,
2013-04-16 04:41:00,70.0,67.0,29.98,North,11,0.0,0.0,89,0.00,,,0.12,,2013-04-16 14:41:00,
2013-04-16 04:52:00,70.0,67.0,29.99,North,11,0.0,0.0,89,0.00,,,0.12,,2013-04-16 14:52:00,
2013-04-16 05:01:00,70.0,67.0,30.00,North,11,2.0,5.0,90,0.00,,,0.12,,2013-04-16 15:01:00,
2013-04-16 05:11:00,70.0,67.0,30.00,North,11,2.0,5.0,90,0.00,,,0.12,,2013-04-16 15:11:00,
2013-04-16 05:21:00,70.0,67.0,30.00,North,11,0.0,0.0,90,0.00,,,0.12,,2013-04-16 15:21:00,
2013-04-16 05:32:00,70.0,67.0,30.00,North,11,0.0,0.0,90,0.00,,,0.12,,2013-04-16 15:32:00,
2013-04-16 05:43:00,70.0,67.0,30.00,North,11,0.0,0.0,90,0.00,,,0.12,,2013-04-16 15:43:00,
2013-04-16 05:53:00,70.0,67.0,30.01,North,11,0.0,0.0,90,0.00,,,0.12,,2013-04-16 15:53:00,
2013-04-16 06:03:00,70.0,67.0,30.01,North,11,1.0,2.0,90,0.00,,,0.12,,2013-04-16 16:03:00,
2013-04-16 06:12:00,70.0,67.0,30.01,North,11,1.0,2.0,90,0.00,,,0.12,,2013-04-16 16:12:00,
2013-04-16 06:22:00,70.0,67.0,30.02,North,11,0.0,0.0,90,0.00,,,0.12,,2013-04-16 16:22:00,
2013-04-16 06:32:00,70.0,67.0,30.03,NNE,13,0.0,3.0,90,0.00,,,0.12,,2013-04-16 16:32:00,
2013-04-16 06:41:00,70.0,67.0,30.03,NNE,13,0.0,3.0,90,0.00,,,0.12,,2013-04-16 16:41:00,
2013-04-16 06:52:00,70.0,67.0,30.04,NNE,15,0.0,1.0,89,0.00,,,0.12,,2013-04-16 16:52:00,
2013-04-16 07:02:00,69.0,66.0,30.04,NNE,15,0.0,0.0,89,0.00,,,0.12,,2013-04-16 17:02:00,
2013-04-16 07:11:00,69.0,66.0,30.04,NNE,15,0.0,0.0,89,0.00,,,0.12,,2013-04-16 17:11:00,
2013-04-16 07:22:00,70.0,67.0,30.04,North,351,0.0,0.0,89,0.00,,,0.12,,2013-04-16 17:22:00,
2013-04-16 07:32:00,70.0,67.0,30.05,North,5,0.0,0.0,89,0.00,,,0.12,,2013-04-16 17:32:00,
2013-04-16 07:43:00,70.0,67.0,30.05,North,5,0.0,0.0,89,0.00,,,0.12,,2013-04-16 17:43:00,
2013-04-16 07:52:00,71.0,68.0,30.05,NE,53,0.0,4.0,90,0.00,,,0.12,,2013-04-16 17:52:00,
2013-04-16 08:01:00,71.0,68.0,30.05,East,80,0.0,1.0,90,0.00,,,0.12,,2013-04-16 18:01:00,
2013-04-16 08:22:00,71.0,68.0,30.06,East,85,0.0,2.0,89,0.00,,,0.12,,2013-04-16 18:22:00,
2013-04-16 08:31:00,71.0,68.0,30.06,East,79,0.0,2.0,90,0.00,,,0.12,,2013-04-16 18:31:00,
2013-04-16 08:42:00,71.0,68.0,30.06,East,79,0.0,2.0,90,0.00,,,0.12,,2013-04-16 18:42:00,
2013-04-16 08:52:00,72.0,69.0,30.07,ENE,71,0.0,1.0,89,0.00,,,0.12,,2013-04-16 18:52:00,
2013-04-16 09:01:00,72.0,69.0,30.07,ENE,71,0.0,1.0,90,0.00,,,0.12,,2013-04-16 19:01:00,
2013-04-16 09:11:00,72.0,69.0,30.07,ENE,71,0.0,1.0,90,0.00,,,0.12,,2013-04-16 19:11:00,
2013-04-16 09:21:00,73.0,70.0,30.07,NE,46,1.0,1.0,89,0.00,,,0.12,,2013-04-16 19:21:00,
2013-04-16 09:31:00,73.0,69.0,30.07,NE,46,0.0,2.0,87,0.00,,,0.12,,2013-04-16 19:31:00,
2013-04-16 09:42:00,73.0,69.0,30.07,NE,46,0.0,2.0,87,0.00,,,0.12,,2013-04-16 19:42:00,
2013-04-16 09:52:00,76.0,69.0,30.07,ESE,115,2.0,7.0,80,0.00,,,0.12,,2013-04-16 19:52:00,
2013-04-16 10:02:00,76.0,69.0,30.08,SSE,159,3.0,5.0,79,0.00,,,0.12,,2013-04-16 20:02:00,
2013-04-16 10:11:00,76.0,69.0,30.08,SSE,159,3.0,5.0,79,0.00,,,0.12,,2013-04-16 20:11:00,
2013-04-16 10:21:00,76.0,69.0,30.07,SW,231,4.0,7.0,80,0.00,,,0.12,,2013-04-16 20:21:00,
2013-04-16 10:31:00,77.0,70.0,30.07,SW,230,6.0,6.0,79,0.00,,,0.12,,2013-04-16 20:31:00,
2013-04-16 10:42:00,77.0,70.0,30.07,SW,230,6.0,6.0,79,0.00,,,0.12,,2013-04-16 20:42:00,
2013-04-16 10:52:00,77.0,67.0,30.07,SW,234,4.0,7.0,72,0.00,,,0.12,,2013-04-16 20:52:00,
2013-04-16 11:01:00,78.0,67.0,30.07,SW,228,7.0,8.0,70,0.00,,,0.12,,2013-04-16 21:01:00,
2013-04-16 11:11:00,78.0,67.0,30.07,SW,228,7.0,8.0,70,0.00,,,0.12,,2013-04-16 21:11:00,
2013-04-16 11:21:00,79.0,67.0,30.07,SW,234,1.0,8.0,66,0.00,,,0.04,,2013-04-16 21:21:00,
2013-04-16 11:32:00,79.0,67.0,30.07,WSW,245,3.0,6.0,67,0.00,,,0.02,,2013-04-16 21:32:00,
2013-04-16 11:42:00,79.0,67.0,30.07,WSW,245,3.0,6.0,67,0.00,,,0.02,,2013-04-16 21:42:00,
2013-04-16 11:53:00,79.0,68.0,30.06,WSW,240,1.0,6.0,68,0.00,,,0.00,,2013-04-16 21:53:00,
2013-04-16 12:02:00,80.0,68.0,30.06,WSW,254,4.0,7.0,68,0.00,,,0.00,,2013-04-16 22:02:00,
2013-04-16 12:12:00,80.0,68.0,30.06,WSW,254,4.0,7.0,68,0.00,,,0.00,,2013-04-16 22:12:00,
2013-04-16 12:22:00,80.0,67.0,30.06,WNW,284,6.0,7.0,64,0.00,,,0.00,,2013-04-16 22:22:00,
2013-04-16 12:32:00,81.0,69.0,30.05,WSW,238,8.0,9.0,66,0.00,,,0.00,,2013-04-16 22:32:00,
2013-04-16 12:42:00,81.0,69.0,30.05,WSW,238,8.0,9.0,66,0.00,,,0.00,,2013-04-16 22:42:00,
2013-04-16 12:52:00,81.0,69.0,30.05,WSW,239,3.0,8.0,66,0.00,,,0.00,,2013-04-16 22:52:00,
2013-04-16 13:02:00,79.0,68.0,30.05,WSW,239,5.0,8.0,70,0.00,,,0.00,,2013-04-16 23:02:00,
2013-04-16 13:11:00,79.0,68.0,30.05,WSW,239,5.0,8.0,70,0.00,,,0.00,,2013-04-16 23:11:00,
2013-04-16 13:21:00,81.0,69.0,30.04,WSW,240,4.0,8.0,66,0.00,,,0.00,,2013-04-16 23:21:00,
2013-04-16 13:32:00,81.0,68.0,30.04,WSW,242,6.0,8.0,65,0.00,,,0.00,,2013-04-16 23:32:00,
2013-04-16 13:42:00,81.0,68.0,30.04,WSW,242,6.0,8.0,65,0.00,,,0.00,,2013-04-16 23:42:00,
2013-04-16 13:52:00,80.0,71.0,30.03,SW,225,6.0,9.0,73,0.00,,,0.00,,2013-04-16 23:52:00,
2013-04-16 14:01:00,80.0,69.0,30.03,WSW,242,6.0,9.0,70,0.00,,,0.00,,2013-04-17 00:01:00,
2013-04-16 14:11:00,80.0,69.0,30.03,WSW,242,6.0,9.0,70,0.00,,,0.00,,2013-04-17 00:11:00,
2013-04-16 14:22:00,81.0,70.0,30.03,WSW,243,5.0,7.0,70,0.00,,,0.00,,2013-04-17 00:22:00,
2013-04-16 14:32:00,81.0,70.0,30.03,WSW,248,2.0,9.0,70,0.00,,,0.00,,2013-04-17 00:32:00,
2013-04-16 14:42:00,81.0,70.0,30.03,WSW,248,2.0,9.0,70,0.00,,,0.00,,2013-04-17 00:42:00,
2013-04-16 14:52:00,83.0,71.0,30.03,WSW,248,4.0,7.0,67,0.00,,,0.00,,2013-04-17 00:52:00,
2013-04-16 15:01:00,82.0,69.0,30.02,SW,232,6.0,8.0,65,0.00,,,0.00,,2013-04-17 01:01:00,
2013-04-16 15:11:00,82.0,69.0,30.02,SW,232,6.0,8.0,65,0.00,,,0.00,,2013-04-17 01:11:00,
2013-04-16 15:21:00,83.0,70.0,30.02,SW,229,6.0,7.0,66,0.00,,,0.00,,2013-04-17 01:21:00,
2013-04-16 15:32:00,82.0,70.0,30.02,SSE,150,4.0,9.0,68,0.00,,,0.00,,2013-04-17 01:32:00,
2013-04-16 15:41:00,82.0,70.0,30.02,SSE,150,4.0,9.0,68,0.00,,,0.00,,2013-04-17 01:41:00,
2013-04-16 15:52:00,81.0,70.0,30.02,SE,130,4.0,6.0,69,0.00,,,0.00,,2013-04-17 01:52:00,
2013-04-16 16:02:00,81.0,69.0,30.02,ESE,104,3.0,7.0,68,0.00,,,0.00,,2013-04-17 02:02:00,
2013-04-16 16:11:00,81.0,69.0,30.02,ESE,104,3.0,7.0,68,0.00,,,0.00,,2013-04-17 02:11:00,
2013-04-16 16:21:00,80.0,68.0,30.02,ESE,117,1.0,8.0,67,0.00,,,0.00,,2013-04-17 02:21:00,
2013-04-16 16:31:00,80.0,70.0,30.02,ESE,115,0.0,8.0,72,0.00,,,0.00,,2013-04-17 02:31:00,
2013-04-16 16:42:00,80.0,70.0,30.02,ESE,115,0.0,8.0,72,0.00,,,0.00,,2013-04-17 02:42:00,
2013-04-16 16:52:00,79.0,70.0,30.03,ENE,70,8.0,10.0,74,0.00,,,0.00,,2013-04-17 02:52:00,
2013-04-16 17:02:00,80.0,71.0,30.02,East,88,0.0,9.0,74,0.00,,,0.00,,2013-04-17 03:02:00,
2013-04-16 17:12:00,80.0,71.0,30.02,East,88,0.0,9.0,74,0.00,,,0.00,,2013-04-17 03:12:00,
2013-04-16 17:21:00,78.0,70.0,30.02,ENE,60,0.0,8.0,76,0.00,,,0.00,,2013-04-17 03:21:00,
2013-04-16 17:32:00,79.0,71.0,30.02,ENE,57,5.0,8.0,77,0.00,,,0.00,,2013-04-17 03:32:00,
2013-04-16 17:42:00,79.0,71.0,30.02,ENE,57,5.0,8.0,77,0.00,,,0.00,,2013-04-17 03:42:00,
2013-04-16 17:53:00,79.0,71.0,30.02,ENE,57,0.0,6.0,76,0.00,,,0.00,,2013-04-17 03:53:00,
2013-04-16 18:02:00,78.0,71.0,30.03,ENE,57,7.0,8.0,78,0.00,,,0.00,,2013-04-17 04:02:00,
2013-04-16 18:12:00,78.0,71.0,30.03,ENE,57,7.0,8.0,78,0.00,,,0.00,,2013-04-17 04:12:00,
2013-04-16 18:22:00,78.0,71.0,30.04,ENE,77,2.0,8.0,79,0.00,,,0.00,,2013-04-17 04:22:00,
2013-04-16 18:32:00,78.0,71.0,30.04,East,86,3.0,10.0,79,0.00,,,0.00,,2013-04-17 04:32:00,
2013-04-16 18:42:00,78.0,71.0,30.04,East,86,3.0,10.0,79,0.00,,,0.00,,2013-04-17 04:42:00,
2013-04-16 18:52:00,77.0,70.0,30.04,East,86,5.0,8.0,79,0.00,,,0.00,,2013-04-17 04:52:00,
2013-04-16 19:02:00,77.0,70.0,30.06,East,85,6.0,8.0,79,0.00,,,0.00,,2013-04-17 05:02:00,
2013-04-16 19:11:00,77.0,70.0,30.06,East,85,6.0,8.0,79,0.00,,,0.00,,2013-04-17 05:11:00,
2013-04-16 19:21:00,77.0,70.0,30.06,ENE,76,4.0,9.0,80,0.00,,,0.00,,2013-04-17 05:21:00,
2013-04-16 19:32:00,76.0,70.0,30.07,ENE,74,2.0,14.0,81,0.00,,,0.00,,2013-04-17 05:32:00,
2013-04-16 19:42:00,76.0,70.0,30.07,ENE,74,2.0,14.0,81,0.00,,,0.00,,2013-04-17 05:42:00,
2013-04-16 19:52:00,75.0,69.0,30.07,East,86,5.0,13.0,82,0.00,,,0.00,,2013-04-17 05:52:00,
2013-04-16 20:02:00,75.0,69.0,30.07,East,91,1.0,13.0,82,0.00,,,0.00,,2013-04-17 06:02:00,
2013-04-16 20:11:00,75.0,69.0,30.07,East,91,1.0,13.0,82,0.00,,,0.00,,2013-04-17 06:11:00,
2013-04-16 20:22:00,75.0,69.0,30.08,East,90,9.0,11.0,83,0.00,,,0.00,,2013-04-17 06:22:00,
2013-04-16 20:31:00,74.0,69.0,30.08,East,86,5.0,10.0,84,0.00,,,0.00,,2013-04-17 06:31:00,
2013-04-16 20:42:00,74.0,69.0,30.08,East,86,5.0,10.0,84,0.00,,,0.00,,2013-04-17 06:42:00,
2013-04-16 20:52:00,74.0,69.0,30.09,ENE,64,8.0,11.0,85,0.00,,,0.00,,2013-04-17 06:52:00,
2013-04-16 21:01:00,74.0,69.0,30.09,East,89,0.0,11.0,85,0.00,,,0.00,,2013-04-17 07:01:00,
2013-04-16 21:11:00,74.0,69.0,30.09,East,89,0.0,11.0,85,0.00,,,0.00,,2013-04-17 07:11:00,
2013-04-16 21:21:00,74.0,69.0,30.10,East,83,8.0,13.0,85,0.00,,,0.00,,2013-04-17 07:21:00,
2013-04-16 21:31:00,74.0,70.0,30.10,East,86,7.0,13.0,86,0.00,,,0.00,,2013-04-17 07:31:00,
2013-04-16 21:42:00,74.0,70.0,30.10,East,86,7.0,13.0,86,0.00,,,0.00,,2013-04-17 07:42:00,
2013-04-16 21:52:00,73.0,69.0,30.11,East,82,6.0,13.0,86,0.00,,,0.00,,2013-04-17 07:52:00,
2013-04-16 22:02:00,73.0,69.0,30.10,East,88,11.0,14.0,86,0.00,,,0.00,,2013-04-17 08:02:00,
2013-04-16 22:11:00,73.0,69.0,30.10,East,88,11.0,14.0,86,0.00,,,0.00,,2013-04-17 08:11:00,
2013-04-16 22:21:00,73.0,69.0,30.11,East,92,6.0,13.0,87,0.00,,,0.00,,2013-04-17 08:21:00,
2013-04-16 22:32:00,73.0,69.0,30.11,ENE,68,3.0,12.0,86,0.00,,,0.00,,2013-04-17 08:32:00,
2013-04-16 22:41:00,73.0,69.0,30.11,ENE,68,3.0,12.0,86,0.00,,,0.00,,2013-04-17 08:41:00,
2013-04-16 22:52:00,73.0,69.0,30.11,ENE,69,1.0,8.0,87,0.00,,,0.00,,2013-04-17 08:52:00,
2013-04-16 23:01:00,73.0,69.0,30.11,ENE,73,3.0,11.0,87,0.00,,,0.00,,2013-04-17 09:01:00,
2013-04-16 23:11:00,73.0,69.0,30.11,ENE,73,3.0,11.0,87,0.00,,,0.00,,2013-04-17 09:11:00,
2013-04-16 23:21:00,73.0,69.0,30.11,East,83,6.0,16.0,87,0.00,,,0.00,,2013-04-17 09:21:00,
2013-04-16 23:32:00,73.0,69.0,30.11,East,84,9.0,13.0,87,0.00,,,0.00,,2013-04-17 09:32:00,
2013-04-16 23:42:00,73.0,69.0,30.11,East,84,9.0,13.0,87,0.00,,,0.00,,2013-04-17 09:42:00,
2013-04-16 23:52:00,73.0,69.0,30.10,East,94,10.0,17.0,87,0.00,,,0.00,,2013-04-17 09:52:00,